ADDS METAR Data INFO
IDs: Format: Raw Decoded Include TAF

Data at: 2202 UTC 24 Feb 2018

KGDV 242156Z AUTO 25012KT 10SM SCT060 M06/M11 A2964 RMK AO2 WSHFT 2116 SLP083 T10561106 FZRANO
KGDV 242141Z AUTO 26011KT 10SM BKN060 BKN100 M06/M11 A2964 RMK AO2 WSHFT 2116 FZRANO
KGDV 242056Z AUTO 16009KT 10SM FEW090 M09/M13 A2966 RMK AO2 SLP096 T10941133 58021 FZRANO
KGDV 241956Z AUTO 15010KT 10SM FEW049 M11/M15 A2968 RMK AO2 SLP107 T11061150 FZRANO
KGDV 241856Z AUTO 16009KT 10SM SCT060 SCT100 M13/M17 A2971 RMK AO2 SLP115 T11281167 FZRANO
KGDV 241756Z AUTO 17011KT 10SM OVC070 M13/M17 A2972 RMK AO2 SLP122 6//// T11331172 11133 21233 58012 FZRANO
KGDV 241656Z AUTO 17007KT 10SM CLR M17/M22 A2975 RMK AO2 SLP132 T11721217 FZRANO
KGDV 241556Z AUTO 16008KT 10SM CLR M21/M24 A2976 RMK AO2 SLP144 T12061244 FZRANO
KGDV 241456Z AUTO 17008KT 10SM CLR M23/M26 A2976 RMK AO2 SLP146 6//// T12281261 58008 FZRANO
KGDV 241356Z AUTO 18008KT 10SM CLR M22/M25 A2977 RMK AO2 SLP146 T12221250 FZRANO
KGDV 241256Z AUTO 22007KT 10SM CLR M21/M24 A2978 RMK AO2 SLP151 T12061239 FZRANO
KGDV 241156Z AUTO 20012KT 10SM CLR M18/M22 A2979 RMK AO2 SLP148 7//// T11831217 11150 21206 56022 FZRANO
KGDV 241056Z AUTO 19015KT 10SM CLR M17/M20 A2981 RMK AO2 SLP153 T11671200 FZRANO
KGDV 240956Z AUTO 21015KT 10SM CLR M16/M19 A2982 RMK AO2 SLP157 T11611194 FZRANO
KGDV 240856Z AUTO 19010KT 10SM CLR M18/M22 A2986 RMK AO2 SLP172 T11831217 56023 FZRANO
KGDV 240756Z AUTO 31006KT 10SM CLR M21/M23 A2988 RMK AO2 SLP186 T12061228 FZRANO
KGDV 240656Z AUTO 22009KT 10SM CLR M16/M20 A2990 RMK AO2 SLP186 T11611200 411441278 FZRANO
KGDV 240556Z AUTO 24012KT 10SM CLR M17/M21 A2993 RMK AO2 SLP200 T11671206 11144 21172 58020 FZRANO
KGDV 240456Z AUTO 22009KT 10SM CLR M16/M19 A2996 RMK AO2 SLP211 T11561189 FZRANO
KGDV 240356Z AUTO 22009KT 10SM CLR M17/M20 A2998 RMK AO2 SLP223 T11671200 FZRANO
KGDV 240256Z AUTO 18009KT 10SM CLR M16/M19 A2999 RMK AO2 SLP229 T11611194 56016 FZRANO
KGDV 240156Z AUTO 20012KT 10SM CLR M15/M18 A3001 RMK AO2 SLP231 T11501183 FZRANO
KGDV 240056Z AUTO 19011KT 10SM CLR M16/M19 A3002 RMK AO2 SLP240 T11611194 FZRANO
KGDV 232356Z AUTO 21012KT 10SM CLR M15/M19 A3004 RMK AO2 SLP245 T11501189 11144 21189 56020 FZRANO
KGDV 232256Z AUTO 21010KT 10SM CLR M14/M19 A3006 RMK AO2 SLP246 T11441189 FZRANO
KGDV 232156Z AUTO 20013KT 10SM CLR M16/M19 A3008 RMK AO2 SLP256 T11561194 FZRANO
KGDV 232056Z AUTO 20008KT 10SM CLR M16/M20 A3011 RMK AO2 SLP264 T11561200 58028 FZRANO
KGDV 231956Z AUTO 19014KT 10SM CLR M17/M21 A3014 RMK AO2 SLP279 T11721211 FZRANO
KGDV 231856Z AUTO 19010KT 10SM CLR M18/M22 A3017 RMK AO2 SLP289 T11781217 FZRANO
KGDV 231756Z AUTO 17010KT 10SM CLR M19/M23 A3020 RMK AO2 SLP297 6//// T11891228 11189 21278 58007 FZRANO
KGDV 231656Z AUTO 19011KT 10SM CLR M21/M24 A3021 RMK AO2 SLP303 T12061244 FZRANO
KGDV 231556Z AUTO 18006KT 10SM CLR M23/M27 A3022 RMK AO2 SLP309 T12331272 FZRANO
KGDV 231456Z AUTO 20005KT 10SM CLR M24/M28 A3022 RMK AO2 SLP308 6//// T12441283 51002 FZRANO
KGDV 231356Z AUTO 18004KT 10SM CLR M22/M27 A3021 RMK AO2 SLP302 T12221272 FZRANO
KGDV 231256Z AUTO 00000KT 10SM CLR M26/M28 A3022 RMK AO2 SLP310 T12561283 FZRANO
KGDV 231156Z AUTO 00000KT 10SM CLR M24/M28 A3021 RMK AO2 SLP304 6//// 7//// T12441278 11183 21261 56007 FZRANO
KGDV 231056Z AUTO 18004KT 10SM CLR M21/M26 A3022 RMK AO2 SLP296 T12111261 FZRANO